sensor_id;sensor_type;location;lat;lon;timestamp;P1;durP1;ratioP1;P2;durP2;ratioP2
51475;SDS011;37554;50.362;7.568;2023-02-26T00:01:17;2.45;;;1.30;;
51475;SDS011;37554;50.362;7.568;2023-02-26T00:03:49;1.53;;;1.23;;
51475;SDS011;37554;50.362;7.568;2023-02-26T00:06:15;3.75;;;1.25;;
51475;SDS011;37554;50.362;7.568;2023-02-26T00:08:41;3.65;;;1.48;;
51475;SDS011;37554;50.362;7.568;2023-02-26T00:11:07;2.95;;;1.45;;
51475;SDS011;37554;50.362;7.568;2023-02-26T00:13:37;4.10;;;1.65;;
51475;SDS011;37554;50.362;7.568;2023-02-26T00:16:08;3.05;;;1.80;;
51475;SDS011;37554;50.362;7.568;2023-02-26T00:18:48;3.95;;;1.65;;
51475;SDS011;37554;50.362;7.568;2023-02-26T00:21:17;2.63;;;1.52;;
51475;SDS011;37554;50.362;7.568;2023-02-26T00:23:43;2.90;;;1.48;;
51475;SDS011;37554;50.362;7.568;2023-02-26T00:26:09;3.88;;;1.70;;
51475;SDS011;37554;50.362;7.568;2023-02-26T00:28:35;2.40;;;1.60;;
51475;SDS011;37554;50.362;7.568;2023-02-26T00:31:01;2.45;;;1.40;;
51475;SDS011;37554;50.362;7.568;2023-02-26T00:33:27;3.50;;;1.63;;
51475;SDS011;37554;50.362;7.568;2023-02-26T00:35:55;3.20;;;1.50;;
51475;SDS011;37554;50.362;7.568;2023-02-26T00:38:42;3.72;;;1.60;;
51475;SDS011;37554;50.362;7.568;2023-02-26T00:41:12;1.83;;;1.20;;
51475;SDS011;37554;50.362;7.568;2023-02-26T00:43:39;2.45;;;1.70;;
51475;SDS011;37554;50.362;7.568;2023-02-26T00:48:59;3.22;;;1.75;;
51475;SDS011;37554;50.362;7.568;2023-02-26T00:51:31;1.63;;;1.08;;
51475;SDS011;37554;50.362;7.568;2023-02-26T00:54:15;2.17;;;1.30;;
51475;SDS011;37554;50.362;7.568;2023-02-26T00:56:42;2.13;;;1.30;;
51475;SDS011;37554;50.362;7.568;2023-02-26T00:59:07;1.50;;;1.20;;
51475;SDS011;37554;50.362;7.568;2023-02-26T01:01:33;2.78;;;1.80;;
51475;SDS011;37554;50.362;7.568;2023-02-26T01:03:59;3.03;;;1.70;;
51475;SDS011;37554;50.362;7.568;2023-02-26T01:06:27;2.90;;;1.40;;
51475;SDS011;37554;50.362;7.568;2023-02-26T01:11:25;2.92;;;1.60;;
51475;SDS011;37554;50.362;7.568;2023-02-26T01:13:51;3.65;;;1.48;;
51475;SDS011;37554;50.362;7.568;2023-02-26T01:16:19;2.45;;;1.42;;
51475;SDS011;37554;50.362;7.568;2023-02-26T01:18:49;3.03;;;1.42;;
51475;SDS011;37554;50.362;7.568;2023-02-26T01:21:32;2.65;;;1.52;;
51475;SDS011;37554;50.362;7.568;2023-02-26T01:24:03;2.63;;;1.42;;
51475;SDS011;37554;50.362;7.568;2023-02-26T01:26:32;3.15;;;1.35;;
51475;SDS011;37554;50.362;7.568;2023-02-26T01:28:57;2.70;;;1.35;;
51475;SDS011;37554;50.362;7.568;2023-02-26T01:31:34;2.63;;;1.35;;
51475;SDS011;37554;50.362;7.568;2023-02-26T01:42:49;1.98;;;1.05;;
51475;SDS011;37554;50.362;7.568;2023-02-26T01:45:18;2.75;;;1.40;;
51475;SDS011;37554;50.362;7.568;2023-02-26T01:47:53;2.22;;;1.30;;
51475;SDS011;37554;50.362;7.568;2023-02-26T01:50:26;2.03;;;1.10;;
51475;SDS011;37554;50.362;7.568;2023-02-26T01:55:54;2.25;;;1.00;;
51475;SDS011;37554;50.362;7.568;2023-02-26T01:58:22;3.53;;;1.50;;
51475;SDS011;37554;50.362;7.568;2023-02-26T02:00:51;2.15;;;1.20;;
51475;SDS011;37554;50.362;7.568;2023-02-26T02:03:17;2.60;;;1.42;;
51475;SDS011;37554;50.362;7.568;2023-02-26T02:05:51;2.58;;;1.55;;
51475;SDS011;37554;50.362;7.568;2023-02-26T02:08:22;3.92;;;1.75;;
51475;SDS011;37554;50.362;7.568;2023-02-26T02:10:49;2.53;;;1.55;;
51475;SDS011;37554;50.362;7.568;2023-02-26T02:21:25;3.95;;;1.75;;
51475;SDS011;37554;50.362;7.568;2023-02-26T02:23:58;5.18;;;1.60;;
51475;SDS011;37554;50.362;7.568;2023-02-26T02:26:39;3.90;;;1.55;;
51475;SDS011;37554;50.362;7.568;2023-02-26T02:31:58;2.90;;;1.42;;
51475;SDS011;37554;50.362;7.568;2023-02-26T02:34:39;3.22;;;1.48;;
51475;SDS011;37554;50.362;7.568;2023-02-26T02:40:00;2.72;;;1.55;;
51475;SDS011;37554;50.362;7.568;2023-02-26T02:42:43;2.17;;;1.37;;
51475;SDS011;37554;50.362;7.568;2023-02-26T02:47:49;2.22;;;1.40;;
51475;SDS011;37554;50.362;7.568;2023-02-26T02:50:30;2.85;;;1.13;;
51475;SDS011;37554;50.362;7.568;2023-02-26T02:53:12;2.35;;;1.52;;
51475;SDS011;37554;50.362;7.568;2023-02-26T02:55:58;2.35;;;1.30;;
51475;SDS011;37554;50.362;7.568;2023-02-26T02:58:29;3.33;;;1.40;;
51475;SDS011;37554;50.362;7.568;2023-02-26T03:00:59;2.17;;;1.20;;
51475;SDS011;37554;50.362;7.568;2023-02-26T03:06:09;2.50;;;1.33;;
51475;SDS011;37554;50.362;7.568;2023-02-26T03:08:36;2.63;;;1.17;;
51475;SDS011;37554;50.362;7.568;2023-02-26T03:11:05;2.00;;;1.17;;
51475;SDS011;37554;50.362;7.568;2023-02-26T03:13:32;2.13;;;1.15;;
51475;SDS011;37554;50.362;7.568;2023-02-26T03:16:00;2.67;;;1.20;;
51475;SDS011;37554;50.362;7.568;2023-02-26T03:19:20;2.00;;;1.27;;
51475;SDS011;37554;50.362;7.568;2023-02-26T03:21:55;1.92;;;0.93;;
51475;SDS011;37554;50.362;7.568;2023-02-26T03:25:01;1.98;;;1.10;;
51475;SDS011;37554;50.362;7.568;2023-02-26T03:27:30;1.33;;;0.80;;
51475;SDS011;37554;50.362;7.568;2023-02-26T03:30:25;2.17;;;1.13;;
51475;SDS011;37554;50.362;7.568;2023-02-26T03:38:13;2.10;;;1.00;;
51475;SDS011;37554;50.362;7.568;2023-02-26T03:40:52;1.73;;;1.00;;
51475;SDS011;37554;50.362;7.568;2023-02-26T03:43:31;1.60;;;0.90;;
51475;SDS011;37554;50.362;7.568;2023-02-26T03:46:02;1.88;;;0.90;;
51475;SDS011;37554;50.362;7.568;2023-02-26T03:48:32;2.00;;;0.88;;
51475;SDS011;37554;50.362;7.568;2023-02-26T03:51:02;2.10;;;0.93;;
51475;SDS011;37554;50.362;7.568;2023-02-26T03:53:38;1.38;;;0.80;;
51475;SDS011;37554;50.362;7.568;2023-02-26T03:58:55;1.52;;;0.77;;
51475;SDS011;37554;50.362;7.568;2023-02-26T04:01:22;2.78;;;0.80;;
51475;SDS011;37554;50.362;7.568;2023-02-26T04:04:00;2.80;;;1.02;;
51475;SDS011;37554;50.362;7.568;2023-02-26T04:06:30;1.83;;;0.88;;
51475;SDS011;37554;50.362;7.568;2023-02-26T04:08:57;1.33;;;0.75;;
51475;SDS011;37554;50.362;7.568;2023-02-26T04:11:24;2.15;;;0.80;;
51475;SDS011;37554;50.362;7.568;2023-02-26T04:13:51;1.58;;;0.70;;
51475;SDS011;37554;50.362;7.568;2023-02-26T04:16:17;1.58;;;0.88;;
51475;SDS011;37554;50.362;7.568;2023-02-26T04:18:43;1.42;;;0.80;;
51475;SDS011;37554;50.362;7.568;2023-02-26T04:21:15;1.13;;;0.52;;
51475;SDS011;37554;50.362;7.568;2023-02-26T04:23:44;1.38;;;0.77;;
51475;SDS011;37554;50.362;7.568;2023-02-26T04:26:09;1.65;;;0.77;;
51475;SDS011;37554;50.362;7.568;2023-02-26T04:28:37;1.58;;;0.82;;
51475;SDS011;37554;50.362;7.568;2023-02-26T04:31:04;1.35;;;0.55;;
51475;SDS011;37554;50.362;7.568;2023-02-26T04:33:30;1.67;;;0.70;;
51475;SDS011;37554;50.362;7.568;2023-02-26T04:35:57;1.70;;;0.63;;
51475;SDS011;37554;50.362;7.568;2023-02-26T04:38:23;1.02;;;0.65;;
51475;SDS011;37554;50.362;7.568;2023-02-26T04:40:49;1.33;;;0.70;;
51475;SDS011;37554;50.362;7.568;2023-02-26T04:43:15;2.58;;;0.88;;
51475;SDS011;37554;50.362;7.568;2023-02-26T04:45:43;1.50;;;0.75;;
51475;SDS011;37554;50.362;7.568;2023-02-26T04:48:10;1.23;;;0.80;;
51475;SDS011;37554;50.362;7.568;2023-02-26T04:50:36;0.75;;;0.63;;
51475;SDS011;37554;50.362;7.568;2023-02-26T04:53:02;1.45;;;0.60;;
51475;SDS011;37554;50.362;7.568;2023-02-26T04:55:28;1.63;;;0.70;;
51475;SDS011;37554;50.362;7.568;2023-02-26T04:57:53;2.10;;;0.68;;
51475;SDS011;37554;50.362;7.568;2023-02-26T05:00:19;1.10;;;0.70;;
51475;SDS011;37554;50.362;7.568;2023-02-26T05:02:44;1.98;;;1.00;;
51475;SDS011;37554;50.362;7.568;2023-02-26T05:05:10;2.10;;;0.90;;
51475;SDS011;37554;50.362;7.568;2023-02-26T05:07:36;1.42;;;0.90;;
51475;SDS011;37554;50.362;7.568;2023-02-26T05:10:02;1.23;;;0.60;;
51475;SDS011;37554;50.362;7.568;2023-02-26T05:12:29;2.75;;;0.90;;
51475;SDS011;37554;50.362;7.568;2023-02-26T05:14:55;1.58;;;0.80;;
51475;SDS011;37554;50.362;7.568;2023-02-26T05:17:20;1.73;;;0.90;;
51475;SDS011;37554;50.362;7.568;2023-02-26T05:19:46;1.58;;;0.90;;
51475;SDS011;37554;50.362;7.568;2023-02-26T05:22:11;2.10;;;0.93;;
51475;SDS011;37554;50.362;7.568;2023-02-26T05:24:38;1.77;;;0.93;;
51475;SDS011;37554;50.362;7.568;2023-02-26T05:27:03;1.60;;;0.90;;
51475;SDS011;37554;50.362;7.568;2023-02-26T05:29:29;1.42;;;1.02;;
51475;SDS011;37554;50.362;7.568;2023-02-26T05:31:55;2.20;;;0.95;;
51475;SDS011;37554;50.362;7.568;2023-02-26T05:34:21;1.35;;;0.88;;
51475;SDS011;37554;50.362;7.568;2023-02-26T05:36:47;2.10;;;1.05;;
51475;SDS011;37554;50.362;7.568;2023-02-26T05:39:13;2.35;;;0.90;;
51475;SDS011;37554;50.362;7.568;2023-02-26T05:41:38;2.38;;;1.13;;
51475;SDS011;37554;50.362;7.568;2023-02-26T05:44:04;1.40;;;0.80;;
51475;SDS011;37554;50.362;7.568;2023-02-26T05:46:31;1.80;;;0.90;;
51475;SDS011;37554;50.362;7.568;2023-02-26T05:48:57;2.08;;;0.90;;
51475;SDS011;37554;50.362;7.568;2023-02-26T05:51:22;1.88;;;0.80;;
51475;SDS011;37554;50.362;7.568;2023-02-26T05:53:48;1.00;;;0.80;;
51475;SDS011;37554;50.362;7.568;2023-02-26T05:56:14;2.70;;;0.90;;
51475;SDS011;37554;50.362;7.568;2023-02-26T05:58:39;1.98;;;1.10;;
51475;SDS011;37554;50.362;7.568;2023-02-26T06:01:05;1.20;;;0.73;;
51475;SDS011;37554;50.362;7.568;2023-02-26T06:03:31;0.90;;;0.70;;
51475;SDS011;37554;50.362;7.568;2023-02-26T06:05:56;2.58;;;0.93;;
51475;SDS011;37554;50.362;7.568;2023-02-26T06:08:22;1.42;;;0.95;;
51475;SDS011;37554;50.362;7.568;2023-02-26T06:10:48;1.58;;;0.73;;
51475;SDS011;37554;50.362;7.568;2023-02-26T06:13:15;1.02;;;0.80;;
51475;SDS011;37554;50.362;7.568;2023-02-26T06:15:41;1.20;;;0.80;;
51475;SDS011;37554;50.362;7.568;2023-02-26T06:18:06;2.17;;;0.90;;
51475;SDS011;37554;50.362;7.568;2023-02-26T06:20:32;2.05;;;0.90;;
51475;SDS011;37554;50.362;7.568;2023-02-26T06:22:58;0.95;;;0.82;;
51475;SDS011;37554;50.362;7.568;2023-02-26T06:25:24;0.85;;;0.77;;
51475;SDS011;37554;50.362;7.568;2023-02-26T06:27:50;1.40;;;0.77;;
51475;SDS011;37554;50.362;7.568;2023-02-26T06:30:15;1.38;;;0.88;;
51475;SDS011;37554;50.362;7.568;2023-02-26T06:32:42;1.60;;;1.00;;
51475;SDS011;37554;50.362;7.568;2023-02-26T06:35:09;1.67;;;1.00;;
51475;SDS011;37554;50.362;7.568;2023-02-26T06:37:35;1.45;;;0.82;;
51475;SDS011;37554;50.362;7.568;2023-02-26T06:40:01;1.63;;;0.80;;
51475;SDS011;37554;50.362;7.568;2023-02-26T06:42:27;1.52;;;0.90;;
51475;SDS011;37554;50.362;7.568;2023-02-26T06:44:53;2.17;;;1.30;;
51475;SDS011;37554;50.362;7.568;2023-02-26T06:47:19;2.03;;;1.02;;
51475;SDS011;37554;50.362;7.568;2023-02-26T06:49:44;1.33;;;0.90;;
51475;SDS011;37554;50.362;7.568;2023-02-26T06:52:10;2.03;;;0.77;;
51475;SDS011;37554;50.362;7.568;2023-02-26T06:54:36;4.28;;;0.93;;
51475;SDS011;37554;50.362;7.568;2023-02-26T06:57:01;1.60;;;0.90;;
51475;SDS011;37554;50.362;7.568;2023-02-26T06:59:27;2.55;;;0.90;;
51475;SDS011;37554;50.362;7.568;2023-02-26T07:01:53;1.77;;;1.10;;
51475;SDS011;37554;50.362;7.568;2023-02-26T07:04:18;2.40;;;1.02;;
51475;SDS011;37554;50.362;7.568;2023-02-26T07:06:44;1.52;;;0.88;;
51475;SDS011;37554;50.362;7.568;2023-02-26T07:09:09;1.55;;;0.80;;
51475;SDS011;37554;50.362;7.568;2023-02-26T07:11:35;1.77;;;1.23;;
51475;SDS011;37554;50.362;7.568;2023-02-26T07:14:00;1.63;;;0.73;;
51475;SDS011;37554;50.362;7.568;2023-02-26T07:16:26;1.65;;;0.80;;
51475;SDS011;37554;50.362;7.568;2023-02-26T07:18:52;1.48;;;0.82;;
51475;SDS011;37554;50.362;7.568;2023-02-26T07:21:17;1.55;;;0.85;;
51475;SDS011;37554;50.362;7.568;2023-02-26T07:23:43;2.42;;;0.93;;
51475;SDS011;37554;50.362;7.568;2023-02-26T07:26:08;38.42;;;19.85;;
51475;SDS011;37554;50.362;7.568;2023-02-26T07:28:34;20.75;;;11.45;;
51475;SDS011;37554;50.362;7.568;2023-02-26T07:31:00;8.25;;;5.57;;
51475;SDS011;37554;50.362;7.568;2023-02-26T07:33:26;5.50;;;3.92;;
51475;SDS011;37554;50.362;7.568;2023-02-26T07:35:55;4.75;;;4.03;;
51475;SDS011;37554;50.362;7.568;2023-02-26T07:38:21;6.25;;;3.90;;
51475;SDS011;37554;50.362;7.568;2023-02-26T07:40:46;4.28;;;3.45;;
51475;SDS011;37554;50.362;7.568;2023-02-26T07:43:18;4.15;;;3.05;;
51475;SDS011;37554;50.362;7.568;2023-02-26T07:45:44;6.18;;;3.10;;
51475;SDS011;37554;50.362;7.568;2023-02-26T07:48:13;4.70;;;2.60;;
51475;SDS011;37554;50.362;7.568;2023-02-26T07:50:42;3.03;;;2.42;;
51475;SDS011;37554;50.362;7.568;2023-02-26T07:53:08;3.67;;;2.53;;
51475;SDS011;37554;50.362;7.568;2023-02-26T07:55:34;3.72;;;1.90;;
51475;SDS011;37554;50.362;7.568;2023-02-26T07:58:00;3.17;;;2.25;;
51475;SDS011;37554;50.362;7.568;2023-02-26T08:00:30;3.92;;;2.55;;
51475;SDS011;37554;50.362;7.568;2023-02-26T08:02:57;3.30;;;2.08;;
51475;SDS011;37554;50.362;7.568;2023-02-26T08:05:22;4.88;;;2.15;;
51475;SDS011;37554;50.362;7.568;2023-02-26T08:07:49;4.65;;;1.92;;
51475;SDS011;37554;50.362;7.568;2023-02-26T08:10:14;2.80;;;1.60;;
51475;SDS011;37554;50.362;7.568;2023-02-26T08:12:43;2.45;;;1.20;;
51475;SDS011;37554;50.362;7.568;2023-02-26T08:15:09;2.03;;;1.45;;
51475;SDS011;37554;50.362;7.568;2023-02-26T08:17:47;2.13;;;1.42;;
51475;SDS011;37554;50.362;7.568;2023-02-26T08:20:12;3.15;;;1.70;;
51475;SDS011;37554;50.362;7.568;2023-02-26T08:22:42;2.00;;;1.40;;
51475;SDS011;37554;50.362;7.568;2023-02-26T08:25:10;2.30;;;1.13;;
51475;SDS011;37554;50.362;7.568;2023-02-26T08:27:36;2.00;;;1.45;;
51475;SDS011;37554;50.362;7.568;2023-02-26T08:30:03;2.08;;;1.23;;
51475;SDS011;37554;50.362;7.568;2023-02-26T08:32:31;2.00;;;1.10;;
51475;SDS011;37554;50.362;7.568;2023-02-26T08:35:27;2.65;;;1.20;;
51475;SDS011;37554;50.362;7.568;2023-02-26T08:37:52;1.27;;;0.82;;
51475;SDS011;37554;50.362;7.568;2023-02-26T08:40:18;2.45;;;1.13;;
51475;SDS011;37554;50.362;7.568;2023-02-26T08:42:44;3.05;;;1.40;;
51475;SDS011;37554;50.362;7.568;2023-02-26T08:45:10;2.58;;;0.93;;
51475;SDS011;37554;50.362;7.568;2023-02-26T08:47:36;2.00;;;0.82;;
51475;SDS011;37554;50.362;7.568;2023-02-26T08:50:02;1.65;;;1.10;;
51475;SDS011;37554;50.362;7.568;2023-02-26T08:52:28;1.50;;;0.90;;
51475;SDS011;37554;50.362;7.568;2023-02-26T08:54:54;1.30;;;0.82;;
51475;SDS011;37554;50.362;7.568;2023-02-26T08:57:20;1.38;;;0.77;;
51475;SDS011;37554;50.362;7.568;2023-02-26T08:59:45;1.50;;;0.88;;
51475;SDS011;37554;50.362;7.568;2023-02-26T09:02:11;1.95;;;0.95;;
51475;SDS011;37554;50.362;7.568;2023-02-26T09:04:38;1.55;;;0.70;;
51475;SDS011;37554;50.362;7.568;2023-02-26T09:07:03;2.83;;;1.05;;
51475;SDS011;37554;50.362;7.568;2023-02-26T09:09:29;2.45;;;0.88;;
51475;SDS011;37554;50.362;7.568;2023-02-26T09:11:55;1.55;;;0.70;;
51475;SDS011;37554;50.362;7.568;2023-02-26T09:14:20;2.13;;;0.80;;
51475;SDS011;37554;50.362;7.568;2023-02-26T09:16:46;1.92;;;0.60;;
51475;SDS011;37554;50.362;7.568;2023-02-26T09:19:12;1.38;;;1.00;;
51475;SDS011;37554;50.362;7.568;2023-02-26T09:21:37;2.67;;;0.80;;
51475;SDS011;37554;50.362;7.568;2023-02-26T09:24:03;1.73;;;0.82;;
51475;SDS011;37554;50.362;7.568;2023-02-26T09:26:29;1.65;;;0.60;;
51475;SDS011;37554;50.362;7.568;2023-02-26T09:28:54;0.95;;;0.55;;
51475;SDS011;37554;50.362;7.568;2023-02-26T09:31:20;2.20;;;0.70;;
51475;SDS011;37554;50.362;7.568;2023-02-26T09:33:46;1.75;;;0.80;;
51475;SDS011;37554;50.362;7.568;2023-02-26T09:36:11;1.02;;;0.55;;
51475;SDS011;37554;50.362;7.568;2023-02-26T09:38:37;1.63;;;0.70;;
51475;SDS011;37554;50.362;7.568;2023-02-26T09:41:07;1.15;;;0.60;;
51475;SDS011;37554;50.362;7.568;2023-02-26T09:43:47;1.52;;;0.70;;
51475;SDS011;37554;50.362;7.568;2023-02-26T09:51:28;0.85;;;0.60;;
51475;SDS011;37554;50.362;7.568;2023-02-26T09:53:56;1.17;;;0.50;;
51475;SDS011;37554;50.362;7.568;2023-02-26T09:56:24;2.25;;;0.50;;
51475;SDS011;37554;50.362;7.568;2023-02-26T09:58:51;1.23;;;0.65;;
51475;SDS011;37554;50.362;7.568;2023-02-26T10:07:15;0.82;;;0.32;;
51475;SDS011;37554;50.362;7.568;2023-02-26T10:12:42;0.52;;;0.40;;
51475;SDS011;37554;50.362;7.568;2023-02-26T10:15:10;0.70;;;0.50;;
51475;SDS011;37554;50.362;7.568;2023-02-26T10:25:47;0.68;;;0.40;;
51475;SDS011;37554;50.362;7.568;2023-02-26T10:36:23;1.15;;;0.38;;
51475;SDS011;37554;50.362;7.568;2023-02-26T10:38:53;0.80;;;0.32;;
51475;SDS011;37554;50.362;7.568;2023-02-26T10:41:29;0.88;;;0.40;;
51475;SDS011;37554;50.362;7.568;2023-02-26T10:44:02;0.73;;;0.45;;
51475;SDS011;37554;50.362;7.568;2023-02-26T10:47:42;0.60;;;0.40;;
51475;SDS011;37554;50.362;7.568;2023-02-26T10:49:54;0.60;;;0.43;;
51475;SDS011;37554;50.362;7.568;2023-02-26T10:52:30;0.52;;;0.40;;
51475;SDS011;37554;50.362;7.568;2023-02-26T10:57:46;1.15;;;0.50;;
51475;SDS011;37554;50.362;7.568;2023-02-26T11:00:19;0.75;;;0.30;;
51475;SDS011;37554;50.362;7.568;2023-02-26T11:02:46;0.80;;;0.30;;
51475;SDS011;37554;50.362;7.568;2023-02-26T11:07:44;0.98;;;0.40;;
51475;SDS011;37554;50.362;7.568;2023-02-26T11:10:18;0.85;;;0.50;;
51475;SDS011;37554;50.362;7.568;2023-02-26T11:12:47;0.70;;;0.50;;
51475;SDS011;37554;50.362;7.568;2023-02-26T11:15:16;1.45;;;0.40;;
51475;SDS011;37554;50.362;7.568;2023-02-26T11:17:52;0.57;;;0.40;;
51475;SDS011;37554;50.362;7.568;2023-02-26T11:22:57;0.65;;;0.30;;
51475;SDS011;37554;50.362;7.568;2023-02-26T11:25:26;1.73;;;0.30;;
51475;SDS011;37554;50.362;7.568;2023-02-26T11:27:58;0.90;;;0.40;;
51475;SDS011;37554;50.362;7.568;2023-02-26T11:30:44;0.73;;;0.40;;
51475;SDS011;37554;50.362;7.568;2023-02-26T11:33:58;0.47;;;0.28;;
51475;SDS011;37554;50.362;7.568;2023-02-26T11:36:05;1.70;;;0.40;;
51475;SDS011;37554;50.362;7.568;2023-02-26T11:38:37;1.05;;;0.45;;
51475;SDS011;37554;50.362;7.568;2023-02-26T11:41:03;0.98;;;0.40;;
51475;SDS011;37554;50.362;7.568;2023-02-26T11:43:35;0.98;;;0.38;;
51475;SDS011;37554;50.362;7.568;2023-02-26T11:46:06;0.80;;;0.50;;
51475;SDS011;37554;50.362;7.568;2023-02-26T11:48:45;0.65;;;0.30;;
51475;SDS011;37554;50.362;7.568;2023-02-26T11:51:13;1.40;;;0.40;;
51475;SDS011;37554;50.362;7.568;2023-02-26T11:53:49;1.48;;;0.60;;
51475;SDS011;37554;50.362;7.568;2023-02-26T11:59:15;0.52;;;0.30;;
51475;SDS011;37554;50.362;7.568;2023-02-26T12:01:44;0.50;;;0.30;;
51475;SDS011;37554;50.362;7.568;2023-02-26T12:04:12;2.85;;;1.00;;
51475;SDS011;37554;50.362;7.568;2023-02-26T12:06:42;1.52;;;0.90;;
51475;SDS011;37554;50.362;7.568;2023-02-26T12:09:12;1.92;;;1.30;;
51475;SDS011;37554;50.362;7.568;2023-02-26T12:14:22;2.97;;;1.95;;
51475;SDS011;37554;50.362;7.568;2023-02-26T12:17:02;2.67;;;1.92;;
51475;SDS011;37554;50.362;7.568;2023-02-26T12:22:49;2.75;;;1.70;;
51475;SDS011;37554;50.362;7.568;2023-02-26T12:25:46;3.50;;;1.60;;
51475;SDS011;37554;50.362;7.568;2023-02-26T12:33:58;2.00;;;1.30;;
51475;SDS011;37554;50.362;7.568;2023-02-26T12:39:13;1.25;;;1.00;;
51475;SDS011;37554;50.362;7.568;2023-02-26T12:52:42;1.88;;;1.15;;
51475;SDS011;37554;50.362;7.568;2023-02-26T12:55:36;1.67;;;1.17;;
51475;SDS011;37554;50.362;7.568;2023-02-26T12:58:22;1.75;;;1.17;;
51475;SDS011;37554;50.362;7.568;2023-02-26T13:09:01;1.15;;;0.80;;
51475;SDS011;37554;50.362;7.568;2023-02-26T13:14:17;1.20;;;0.70;;
51475;SDS011;37554;50.362;7.568;2023-02-26T13:22:34;0.90;;;0.63;;
51475;SDS011;37554;50.362;7.568;2023-02-26T13:25:29;1.37;;;0.60;;
51475;SDS011;37554;50.362;7.568;2023-02-26T13:28:19;0.85;;;0.50;;
51475;SDS011;37554;50.362;7.568;2023-02-26T13:30:52;1.20;;;0.57;;
51475;SDS011;37554;50.362;7.568;2023-02-26T13:33:20;1.48;;;0.75;;
51475;SDS011;37554;50.362;7.568;2023-02-26T13:35:51;0.77;;;0.60;;
51475;SDS011;37554;50.362;7.568;2023-02-26T13:38:20;0.85;;;0.52;;
51475;SDS011;37554;50.362;7.568;2023-02-26T13:54:27;1.08;;;0.70;;
51475;SDS011;37554;50.362;7.568;2023-02-26T14:00:07;0.80;;;0.38;;
51475;SDS011;37554;50.362;7.568;2023-02-26T14:02:46;0.50;;;0.38;;
51475;SDS011;37554;50.362;7.568;2023-02-26T14:11:37;0.88;;;0.50;;
51475;SDS011;37554;50.362;7.568;2023-02-26T14:19:32;0.82;;;0.50;;
51475;SDS011;37554;50.362;7.568;2023-02-26T14:24:52;1.30;;;0.60;;
51475;SDS011;37554;50.362;7.568;2023-02-26T14:30:00;0.88;;;0.40;;
51475;SDS011;37554;50.362;7.568;2023-02-26T14:35:18;0.95;;;0.50;;
51475;SDS011;37554;50.362;7.568;2023-02-26T14:40:53;1.05;;;0.40;;
51475;SDS011;37554;50.362;7.568;2023-02-26T14:46:01;1.38;;;0.50;;
51475;SDS011;37554;50.362;7.568;2023-02-26T14:48:28;0.77;;;0.30;;
51475;SDS011;37554;50.362;7.568;2023-02-26T14:56:38;0.45;;;0.30;;
51475;SDS011;37554;50.362;7.568;2023-02-26T14:59:51;0.60;;;0.40;;
51475;SDS011;37554;50.362;7.568;2023-02-26T15:07:37;0.57;;;0.50;;
51475;SDS011;37554;50.362;7.568;2023-02-26T15:22:43;0.20;;;0.20;;
51475;SDS011;37554;50.362;7.568;2023-02-26T15:25:24;1.00;;;0.45;;
51475;SDS011;37554;50.362;7.568;2023-02-26T15:27:54;0.70;;;0.30;;
51475;SDS011;37554;50.362;7.568;2023-02-26T15:30:21;0.80;;;0.30;;
51475;SDS011;37554;50.362;7.568;2023-02-26T15:32:48;0.77;;;0.30;;
51475;SDS011;37554;50.362;7.568;2023-02-26T15:35:20;0.70;;;0.32;;
51475;SDS011;37554;50.362;7.568;2023-02-26T15:37:51;0.50;;;0.40;;
51475;SDS011;37554;50.362;7.568;2023-02-26T15:40:18;0.57;;;0.40;;
51475;SDS011;37554;50.362;7.568;2023-02-26T15:42:47;1.35;;;0.50;;
51475;SDS011;37554;50.362;7.568;2023-02-26T15:45:17;0.60;;;0.30;;
51475;SDS011;37554;50.362;7.568;2023-02-26T15:48:01;0.50;;;0.35;;
51475;SDS011;37554;50.362;7.568;2023-02-26T15:50:32;0.40;;;0.40;;
51475;SDS011;37554;50.362;7.568;2023-02-26T15:53:02;0.80;;;0.40;;
51475;SDS011;37554;50.362;7.568;2023-02-26T15:55:31;1.25;;;0.50;;
51475;SDS011;37554;50.362;7.568;2023-02-26T15:58:00;0.82;;;0.30;;
51475;SDS011;37554;50.362;7.568;2023-02-26T16:00:27;1.40;;;0.50;;
51475;SDS011;37554;50.362;7.568;2023-02-26T16:02:57;1.02;;;0.38;;
51475;SDS011;37554;50.362;7.568;2023-02-26T16:05:26;0.63;;;0.40;;
51475;SDS011;37554;50.362;7.568;2023-02-26T16:07:53;1.38;;;0.38;;
51475;SDS011;37554;50.362;7.568;2023-02-26T16:13:10;0.40;;;0.30;;
51475;SDS011;37554;50.362;7.568;2023-02-26T16:15:44;0.40;;;0.30;;
51475;SDS011;37554;50.362;7.568;2023-02-26T16:18:13;0.82;;;0.38;;
51475;SDS011;37554;50.362;7.568;2023-02-26T16:20:46;0.70;;;0.40;;
51475;SDS011;37554;50.362;7.568;2023-02-26T16:28:19;0.40;;;0.30;;
51475;SDS011;37554;50.362;7.568;2023-02-26T16:30:52;0.50;;;0.20;;
51475;SDS011;37554;50.362;7.568;2023-02-26T16:33:20;0.60;;;0.28;;
51475;SDS011;37554;50.362;7.568;2023-02-26T16:35:49;0.57;;;0.30;;
51475;SDS011;37554;50.362;7.568;2023-02-26T16:38:32;0.60;;;0.40;;
51475;SDS011;37554;50.362;7.568;2023-02-26T16:41:10;0.57;;;0.35;;
51475;SDS011;37554;50.362;7.568;2023-02-26T16:46:09;1.30;;;0.30;;
51475;SDS011;37554;50.362;7.568;2023-02-26T16:48:52;0.80;;;0.40;;
51475;SDS011;37554;50.362;7.568;2023-02-26T16:51:21;0.50;;;0.30;;
51475;SDS011;37554;50.362;7.568;2023-02-26T16:53:51;0.63;;;0.30;;
51475;SDS011;37554;50.362;7.568;2023-02-26T16:56:32;0.57;;;0.40;;
51475;SDS011;37554;50.362;7.568;2023-02-26T16:59:06;1.05;;;0.40;;
51475;SDS011;37554;50.362;7.568;2023-02-26T17:01:37;0.50;;;0.38;;
51475;SDS011;37554;50.362;7.568;2023-02-26T17:04:22;0.40;;;0.38;;
51475;SDS011;37554;50.362;7.568;2023-02-26T17:06:50;0.68;;;0.30;;
51475;SDS011;37554;50.362;7.568;2023-02-26T17:09:30;1.08;;;0.47;;
51475;SDS011;37554;50.362;7.568;2023-02-26T17:12:04;0.65;;;0.30;;
51475;SDS011;37554;50.362;7.568;2023-02-26T17:14:41;1.17;;;0.50;;
51475;SDS011;37554;50.362;7.568;2023-02-26T17:17:12;0.77;;;0.30;;
51475;SDS011;37554;50.362;7.568;2023-02-26T17:19:38;0.63;;;0.30;;
51475;SDS011;37554;50.362;7.568;2023-02-26T17:22:04;0.40;;;0.30;;
51475;SDS011;37554;50.362;7.568;2023-02-26T17:24:36;0.77;;;0.30;;
51475;SDS011;37554;50.362;7.568;2023-02-26T17:27:09;0.55;;;0.30;;
51475;SDS011;37554;50.362;7.568;2023-02-26T17:29:41;0.43;;;0.32;;
51475;SDS011;37554;50.362;7.568;2023-02-26T17:32:13;0.55;;;0.25;;
51475;SDS011;37554;50.362;7.568;2023-02-26T17:34:50;1.15;;;0.30;;
51475;SDS011;37554;50.362;7.568;2023-02-26T17:37:17;0.52;;;0.30;;
51475;SDS011;37554;50.362;7.568;2023-02-26T17:39:44;0.50;;;0.30;;
51475;SDS011;37554;50.362;7.568;2023-02-26T17:42:11;0.50;;;0.30;;
51475;SDS011;37554;50.362;7.568;2023-02-26T17:44:39;1.23;;;0.45;;
51475;SDS011;37554;50.362;7.568;2023-02-26T17:47:05;1.65;;;0.57;;
51475;SDS011;37554;50.362;7.568;2023-02-26T17:49:31;1.63;;;0.63;;
51475;SDS011;37554;50.362;7.568;2023-02-26T17:51:57;0.75;;;0.60;;
51475;SDS011;37554;50.362;7.568;2023-02-26T17:54:23;1.85;;;0.70;;
51475;SDS011;37554;50.362;7.568;2023-02-26T17:56:48;0.98;;;0.70;;
51475;SDS011;37554;50.362;7.568;2023-02-26T17:59:14;1.38;;;0.55;;
51475;SDS011;37554;50.362;7.568;2023-02-26T18:01:40;1.92;;;0.77;;
51475;SDS011;37554;50.362;7.568;2023-02-26T18:04:06;1.35;;;0.70;;
51475;SDS011;37554;50.362;7.568;2023-02-26T18:06:33;1.75;;;0.50;;
51475;SDS011;37554;50.362;7.568;2023-02-26T18:09:01;1.05;;;0.77;;
51475;SDS011;37554;50.362;7.568;2023-02-26T18:11:29;1.30;;;0.90;;
51475;SDS011;37554;50.362;7.568;2023-02-26T18:13:56;1.88;;;0.70;;
51475;SDS011;37554;50.362;7.568;2023-02-26T18:16:25;1.38;;;0.70;;
51475;SDS011;37554;50.362;7.568;2023-02-26T18:18:57;1.48;;;1.00;;
51475;SDS011;37554;50.362;7.568;2023-02-26T18:21:23;2.90;;;1.02;;
51475;SDS011;37554;50.362;7.568;2023-02-26T18:23:50;1.30;;;0.65;;
51475;SDS011;37554;50.362;7.568;2023-02-26T18:26:17;2.03;;;0.90;;
51475;SDS011;37554;50.362;7.568;2023-02-26T18:28:47;1.63;;;0.82;;